createdAt,value
2019-03-03T00:00:39.709Z,30.93
2019-03-03T00:03:08.197Z,30.60
2019-03-03T00:05:36.683Z,30.36
2019-03-03T00:08:05.204Z,30.20
2019-03-03T00:10:33.734Z,29.89
2019-03-03T00:13:02.154Z,30.04
2019-03-03T00:15:30.620Z,30.08
2019-03-03T00:17:59.424Z,30.34
2019-03-03T00:20:27.854Z,30.07
2019-03-03T00:22:56.312Z,29.91
2019-03-03T00:25:24.743Z,29.66
2019-03-03T00:27:53.200Z,29.54
2019-03-03T00:30:22.062Z,29.42
2019-03-03T00:32:50.578Z,29.29
2019-03-03T00:35:19.112Z,28.96
2019-03-03T00:37:55.446Z,28.75
2019-03-03T00:40:25.543Z,29.22
2019-03-03T00:42:55.638Z,28.74
2019-03-03T00:45:31.295Z,28.61
2019-03-03T00:48:19.447Z,28.96
2019-03-03T00:50:52.412Z,29.23
2019-03-03T00:53:28.275Z,29.17
2019-03-03T00:56:04.505Z,29.84
2019-03-03T00:58:34.602Z,29.89
2019-03-03T01:01:07.559Z,29.67
2019-03-03T01:03:37.676Z,30.41
2019-03-03T01:06:10.470Z,29.91
2019-03-03T01:08:43.262Z,29.89
2019-03-03T01:11:22.642Z,29.41
2019-03-03T01:13:55.708Z,29.50
2019-03-03T01:16:41.871Z,29.69
2019-03-03T01:19:27.333Z,29.21
2019-03-03T01:21:57.405Z,29.00
2019-03-03T01:24:27.482Z,28.80
2019-03-03T01:26:55.926Z,28.73
2019-03-03T01:29:24.447Z,28.65
2019-03-03T01:31:52.893Z,28.13
2019-03-03T01:34:21.346Z,27.91
2019-03-03T01:36:50.060Z,27.74
2019-03-03T01:39:18.556Z,27.67
2019-03-03T01:41:47.024Z,27.72
2019-03-03T01:44:15.561Z,28.35
2019-03-03T01:46:44.031Z,28.23
2019-03-03T01:49:12.463Z,28.43
2019-03-03T01:51:40.901Z,28.52
2019-03-03T01:54:09.352Z,28.81
2019-03-03T01:56:37.815Z,28.85
2019-03-03T01:59:06.273Z,28.68
2019-03-03T02:01:34.777Z,28.54
2019-03-03T02:04:03.343Z,28.30
2019-03-03T02:06:31.803Z,28.96
2019-03-03T02:09:00.267Z,28.50
2019-03-03T02:11:28.704Z,28.39
2019-03-03T02:13:57.183Z,28.73
2019-03-03T02:16:25.614Z,28.86
2019-03-03T02:18:54.069Z,28.77
2019-03-03T02:21:22.596Z,28.94
2019-03-03T02:23:51.097Z,29.17
2019-03-03T02:26:19.521Z,29.23
2019-03-03T02:28:47.976Z,29.77
2019-03-03T02:31:16.428Z,30.02
2019-03-03T02:33:45.037Z,30.11
2019-03-03T02:36:13.589Z,30.34
2019-03-03T02:38:42.035Z,30.44
2019-03-03T02:41:10.488Z,30.63
2019-03-03T02:43:40.874Z,30.75
2019-03-03T02:46:09.577Z,30.71
2019-03-03T02:48:38.048Z,30.86
2019-03-03T02:51:06.479Z,31.59
2019-03-03T02:53:34.939Z,31.56
2019-03-03T02:56:03.387Z,31.53
2019-03-03T02:58:31.821Z,31.43
2019-03-03T03:01:10.955Z,31.64
2019-03-03T03:03:39.491Z,31.51
2019-03-03T03:06:09.648Z,31.54
2019-03-03T03:08:39.710Z,31.82
2019-03-03T03:11:26.320Z,31.90
2019-03-03T03:13:56.394Z,31.98
2019-03-03T03:16:26.462Z,32.10
2019-03-03T03:19:08.889Z,32.14
2019-03-03T03:21:38.945Z,32.26
2019-03-03T03:24:14.648Z,32.37
2019-03-03T03:26:59.447Z,32.52
2019-03-03T03:29:32.271Z,32.66
2019-03-03T03:32:18.718Z,32.75
2019-03-03T03:34:48.817Z,32.81
2019-03-03T03:37:35.242Z,32.88
2019-03-03T03:40:09.839Z,33.05
2019-03-03T03:42:42.865Z,33.10
2019-03-03T03:45:22.328Z,33.16
2019-03-03T03:48:08.933Z,33.17
2019-03-03T03:50:39.010Z,33.28
2019-03-03T03:53:11.863Z,33.42
2019-03-03T03:55:48.781Z,33.34
2019-03-03T03:58:28.019Z,33.46
2019-03-03T04:00:58.115Z,33.55
2019-03-03T04:03:31.035Z,33.57
2019-03-03T04:06:17.523Z,33.58
2019-03-03T04:09:02.670Z,33.69
2019-03-03T04:11:41.776Z,33.76
2019-03-03T04:14:17.555Z,33.83
2019-03-03T04:16:59.667Z,33.87
2019-03-03T04:19:29.741Z,33.89
2019-03-03T04:22:02.219Z,33.91
2019-03-03T04:24:47.607Z,33.89
2019-03-03T04:27:26.395Z,33.89
2019-03-03T04:29:56.465Z,33.93
2019-03-03T04:32:26.510Z,34.01
2019-03-03T04:34:56.596Z,34.07
2019-03-03T04:37:26.647Z,34.14
2019-03-03T04:39:56.741Z,34.20
2019-03-03T04:42:26.797Z,34.17
2019-03-03T04:45:08.976Z,34.21
2019-03-03T04:47:41.465Z,34.26
2019-03-03T04:50:14.100Z,34.26
2019-03-03T04:52:44.162Z,34.35
2019-03-03T04:55:29.520Z,34.35
2019-03-03T04:58:08.147Z,34.39
2019-03-03T05:00:38.233Z,34.39
2019-03-03T05:03:13.919Z,34.46
2019-03-03T05:05:46.421Z,34.40
2019-03-03T05:08:28.178Z,34.34
2019-03-03T05:10:58.251Z,34.43
2019-03-03T05:13:31.059Z,34.45
2019-03-03T05:16:16.181Z,34.45
2019-03-03T05:18:48.969Z,34.48
2019-03-03T05:21:17.402Z,34.47
2019-03-03T05:23:45.826Z,34.50
2019-03-03T05:26:14.269Z,34.57
2019-03-03T05:28:42.780Z,34.58
2019-03-03T05:31:11.198Z,34.55
2019-03-03T05:33:39.618Z,34.57
2019-03-03T05:36:08.058Z,34.61
2019-03-03T05:38:36.468Z,34.55
2019-03-03T05:41:04.900Z,34.67
2019-03-03T05:43:33.336Z,34.65
2019-03-03T05:46:01.759Z,34.67
2019-03-03T05:48:30.191Z,34.69
2019-03-03T05:50:58.604Z,34.74
2019-03-03T05:53:27.034Z,34.75
2019-03-03T05:55:55.465Z,34.77
2019-03-03T05:58:23.871Z,34.75
2019-03-03T06:00:52.305Z,34.72
2019-03-03T06:03:20.724Z,34.73
2019-03-03T06:05:49.191Z,34.70
2019-03-03T06:08:17.616Z,34.73
2019-03-03T06:10:46.053Z,34.58
2019-03-03T06:13:14.478Z,34.73
2019-03-03T06:15:42.932Z,34.74
2019-03-03T06:18:11.350Z,34.74
2019-03-03T06:20:39.797Z,34.71
2019-03-03T06:23:08.218Z,34.71
2019-03-03T06:25:36.645Z,34.72
2019-03-03T06:28:05.150Z,34.73
2019-03-03T06:30:33.600Z,34.83
2019-03-03T06:33:02.041Z,34.73
2019-03-03T06:35:30.480Z,34.75
2019-03-03T06:37:58.916Z,34.80
2019-03-03T06:40:27.422Z,34.83
2019-03-03T06:42:55.856Z,34.74
2019-03-03T06:45:24.270Z,34.78
2019-03-03T06:47:52.712Z,34.80
2019-03-03T06:50:21.124Z,34.72
2019-03-03T06:52:49.581Z,34.81
2019-03-03T06:55:17.998Z,34.77
2019-03-03T06:57:46.414Z,34.72
2019-03-03T07:00:17.107Z,34.56
2019-03-03T07:02:45.587Z,34.66
2019-03-03T07:05:14.188Z,34.47
2019-03-03T07:07:42.881Z,34.38
2019-03-03T07:10:13.367Z,34.18
2019-03-03T07:12:41.960Z,34.19
2019-03-03T07:15:13.487Z,34.10
2019-03-03T07:17:41.946Z,34.01
2019-03-03T07:20:12.193Z,34.09
2019-03-03T07:22:40.610Z,34.04
2019-03-03T07:25:13.921Z,33.88
2019-03-03T07:27:42.453Z,33.84
2019-03-03T07:30:13.700Z,33.69
2019-03-03T07:32:52.622Z,33.77
2019-03-03T07:35:21.044Z,33.75
2019-03-03T07:37:49.478Z,33.84
2019-03-03T07:40:17.930Z,33.87
2019-03-03T07:42:46.335Z,33.88
2019-03-03T07:45:15.725Z,33.90
2019-03-03T07:47:44.177Z,33.87
2019-03-03T07:50:12.603Z,33.98
2019-03-03T07:52:41.147Z,33.90
2019-03-03T07:55:10.505Z,33.92
2019-03-03T07:57:38.932Z,33.89
2019-03-03T08:00:14.630Z,33.95
2019-03-03T08:02:43.109Z,33.94
2019-03-03T08:05:12.390Z,33.95
2019-03-03T08:07:40.822Z,33.90
2019-03-03T08:10:12.255Z,33.88
2019-03-03T08:12:40.664Z,33.92
2019-03-03T08:15:16.791Z,33.80
2019-03-03T08:17:45.199Z,33.70
2019-03-03T08:20:15.440Z,33.76
2019-03-03T08:22:43.962Z,33.66
2019-03-03T08:25:13.002Z,33.62
2019-03-03T08:27:41.467Z,33.58
2019-03-03T08:30:15.139Z,33.55
2019-03-03T08:32:43.630Z,33.70
2019-03-03T08:35:17.849Z,33.59
2019-03-03T08:37:46.301Z,33.68
2019-03-03T08:40:15.612Z,33.66
2019-03-03T08:43:04.045Z,33.73
2019-03-03T08:45:48.911Z,33.65
2019-03-03T08:48:34.049Z,33.75
2019-03-03T08:51:10.019Z,33.80
2019-03-03T08:53:40.106Z,33.79
2019-03-03T08:56:12.857Z,33.83
2019-03-03T08:58:48.665Z,33.79
2019-03-03T09:01:18.731Z,33.81
2019-03-03T09:03:51.819Z,33.77
2019-03-03T09:06:27.832Z,33.79
2019-03-03T09:09:06.837Z,33.71
2019-03-03T09:11:40.173Z,33.65
2019-03-03T09:14:12.679Z,33.74
2019-03-03T09:16:54.830Z,33.67
2019-03-03T09:19:24.923Z,33.63
2019-03-03T09:22:11.161Z,33.52
2019-03-03T09:24:57.447Z,33.46
2019-03-03T09:27:27.608Z,33.31
2019-03-03T09:30:13.588Z,33.27
2019-03-03T09:32:43.694Z,33.29
2019-03-03T09:35:13.923Z,33.21
2019-03-03T09:37:46.677Z,33.27
2019-03-03T09:40:31.471Z,33.35
2019-03-03T09:43:07.613Z,33.32
2019-03-03T09:45:50.004Z,33.29
2019-03-03T09:48:26.090Z,33.29
2019-03-03T09:51:14.385Z,33.31
2019-03-03T09:54:00.732Z,33.25
2019-03-03T09:56:36.515Z,33.16
2019-03-03T09:59:06.834Z,33.16
2019-03-03T10:01:39.396Z,33.24
2019-03-03T10:04:09.473Z,33.19
2019-03-03T10:06:55.773Z,33.15
2019-03-03T10:09:31.768Z,33.22
2019-03-03T10:12:10.463Z,33.18
2019-03-03T10:14:40.514Z,33.23
2019-03-03T10:17:19.827Z,33.27
2019-03-03T10:19:49.890Z,33.30
2019-03-03T10:22:32.206Z,33.25
2019-03-03T10:25:02.279Z,33.27
2019-03-03T10:27:35.039Z,33.29
2019-03-03T10:30:22.808Z,33.28
2019-03-03T10:33:04.736Z,33.20
2019-03-03T10:35:34.789Z,33.23
2019-03-03T10:38:10.605Z,33.06
2019-03-03T10:40:40.758Z,32.92
2019-03-03T10:43:28.658Z,32.90
2019-03-03T10:45:58.741Z,32.75
2019-03-03T10:48:40.732Z,32.85
2019-03-03T10:51:10.791Z,32.76
2019-03-03T10:53:49.841Z,32.76
2019-03-03T10:56:22.959Z,32.78
2019-03-03T10:58:55.922Z,32.94
2019-03-03T11:01:41.421Z,32.95
2019-03-03T11:04:27.499Z,33.02
2019-03-03T11:07:00.497Z,32.96
2019-03-03T11:09:30.576Z,32.78
2019-03-03T11:12:00.642Z,32.77
2019-03-03T11:14:45.715Z,32.58
2019-03-03T11:17:24.815Z,32.49
2019-03-03T11:20:04.123Z,32.37
2019-03-03T11:22:34.237Z,32.49
2019-03-03T11:25:07.269Z,32.50
2019-03-03T11:27:37.348Z,32.58
2019-03-03T11:30:25.277Z,32.72
2019-03-03T11:33:01.220Z,32.71
2019-03-03T11:35:37.315Z,32.80
2019-03-03T11:38:07.815Z,32.89
2019-03-03T11:40:43.879Z,32.88
2019-03-03T11:43:25.845Z,32.88
2019-03-03T11:45:55.901Z,32.87
2019-03-03T11:48:34.473Z,32.81
2019-03-03T11:51:04.579Z,32.84
2019-03-03T11:53:40.370Z,32.74
2019-03-03T11:56:10.447Z,32.72
2019-03-03T11:58:49.727Z,32.76
2019-03-03T12:01:32.003Z,32.79
2019-03-03T12:04:04.815Z,32.78
2019-03-03T12:06:34.885Z,32.79
2019-03-03T12:09:10.650Z,32.76
2019-03-03T12:11:59.102Z,32.73
2019-03-03T12:14:32.174Z,32.67
2019-03-03T12:17:08.986Z,32.63
2019-03-03T12:19:39.077Z,32.55
2019-03-03T12:22:21.288Z,32.64
2019-03-03T12:25:00.148Z,32.59
2019-03-03T12:30:05.259Z,32.60
2019-03-03T12:32:35.333Z,32.60
2019-03-03T12:35:12.407Z,32.70
2019-03-03T12:37:42.489Z,32.80
2019-03-03T12:40:19.280Z,32.84
2019-03-03T12:42:52.054Z,32.90
2019-03-03T12:45:31.357Z,32.93
2019-03-03T12:48:16.735Z,32.92
2019-03-03T12:51:02.122Z,32.88
2019-03-03T12:53:38.209Z,32.76
2019-03-03T12:56:13.971Z,32.67
2019-03-03T13:01:28.316Z,32.57
2019-03-03T13:04:01.123Z,32.55
2019-03-03T13:06:33.863Z,32.49
2019-03-03T13:09:06.869Z,32.53
2019-03-03T13:11:45.908Z,32.69
2019-03-03T13:14:18.850Z,32.74
2019-03-03T13:16:58.189Z,32.79
2019-03-03T13:19:28.252Z,32.89
2019-03-03T13:22:13.216Z,32.98
2019-03-03T13:24:46.090Z,32.91
2019-03-03T13:27:32.391Z,32.93
2019-03-03T13:30:18.926Z,32.93
2019-03-03T13:32:51.502Z,32.88
2019-03-03T13:35:33.622Z,32.93
2019-03-03T13:38:03.663Z,32.91
2019-03-03T13:40:36.529Z,32.94
2019-03-03T13:43:05.190Z,33.03
2019-03-03T13:45:34.464Z,33.08
2019-03-03T13:48:02.899Z,33.12
2019-03-03T13:50:31.406Z,33.15
2019-03-03T13:52:59.923Z,33.20
2019-03-03T13:55:28.485Z,33.24
2019-03-03T13:57:56.997Z,33.24
2019-03-03T14:00:25.587Z,33.55
2019-03-03T14:02:54.098Z,33.69
2019-03-03T14:05:23.145Z,33.71
2019-03-03T14:07:51.858Z,33.61
2019-03-03T14:10:20.356Z,33.64
2019-03-03T14:12:48.942Z,33.76
2019-03-03T14:15:19.240Z,34.01
2019-03-03T14:17:47.674Z,34.19
2019-03-03T14:20:18.365Z,34.27
2019-03-03T14:22:46.922Z,34.27
2019-03-03T14:25:16.383Z,34.05
2019-03-03T14:27:45.045Z,33.73
2019-03-03T14:30:18.654Z,33.63
2019-03-03T14:32:47.155Z,33.41
2019-03-03T14:35:16.930Z,33.78
2019-03-03T14:37:45.363Z,33.77
2019-03-03T14:40:16.528Z,33.89
2019-03-03T14:42:45.026Z,33.96
2019-03-03T14:45:16.090Z,33.94
2019-03-03T14:47:44.662Z,34.79
2019-03-03T14:50:21.311Z,34.58
2019-03-03T14:52:52.092Z,34.58
2019-03-03T14:55:21.071Z,34.17
2019-03-03T14:57:49.589Z,34.13
2019-03-03T15:00:24.861Z,34.01
2019-03-03T15:02:53.741Z,34.10
2019-03-03T15:05:22.495Z,34.28
2019-03-03T15:07:51.137Z,34.32
2019-03-03T15:10:19.530Z,34.26
2019-03-03T15:12:48.152Z,34.19
2019-03-03T15:15:19.644Z,34.09
2019-03-03T15:17:48.166Z,34.42
2019-03-03T15:20:17.218Z,34.75
2019-03-03T15:22:46.700Z,34.89
2019-03-03T15:25:15.756Z,35.12
2019-03-03T15:27:44.546Z,36.69
2019-03-03T15:30:24.087Z,36.38
2019-03-03T15:32:52.560Z,36.00
2019-03-03T15:35:21.162Z,35.70
2019-03-03T15:37:49.849Z,35.64
2019-03-03T15:40:23.439Z,35.43
2019-03-03T15:42:51.868Z,35.31
2019-03-03T15:45:25.792Z,35.03
2019-03-03T15:47:54.224Z,34.99
2019-03-03T15:50:23.363Z,34.66
2019-03-03T15:52:51.834Z,34.46
2019-03-03T15:55:22.537Z,34.47
2019-03-03T15:57:51.239Z,34.46
2019-03-03T16:00:25.457Z,34.42
2019-03-03T16:02:53.865Z,34.42
2019-03-03T16:05:22.539Z,34.39
2019-03-03T16:07:50.970Z,34.39
2019-03-03T16:10:21.841Z,34.27
2019-03-03T16:12:50.341Z,34.25
2019-03-03T16:15:18.901Z,34.35
2019-03-03T16:17:47.431Z,34.28
2019-03-03T16:20:18.425Z,34.27
2019-03-03T16:22:46.899Z,34.33
2019-03-03T16:25:17.819Z,34.80
2019-03-03T16:27:46.221Z,35.13
2019-03-03T16:30:17.999Z,35.50
2019-03-03T16:32:47.223Z,35.67
2019-03-03T16:35:15.972Z,35.76
2019-03-03T16:37:44.425Z,35.83
2019-03-03T16:40:23.764Z,35.87
2019-03-03T16:42:52.534Z,36.39
2019-03-03T16:45:21.439Z,36.22
2019-03-03T16:47:50.144Z,36.25
2019-03-03T16:50:20.760Z,36.17
2019-03-03T16:52:49.325Z,36.11
2019-03-03T16:55:19.844Z,36.19
2019-03-03T16:57:48.353Z,36.35
2019-03-03T17:00:24.423Z,36.18
2019-03-03T17:02:53.069Z,36.25
2019-03-03T17:05:23.655Z,36.25
2019-03-03T17:07:52.071Z,36.46
2019-03-03T17:10:20.501Z,36.46
2019-03-03T17:12:48.935Z,36.43
2019-03-03T17:15:19.583Z,36.43
2019-03-03T17:17:48.014Z,36.59
2019-03-03T17:20:16.501Z,36.45
2019-03-03T17:22:45.012Z,36.57
2019-03-03T17:25:18.842Z,36.57
2019-03-03T17:27:47.335Z,36.30
2019-03-03T17:30:18.015Z,36.77
2019-03-03T17:32:46.460Z,36.55
2019-03-03T17:35:15.123Z,36.96
2019-03-03T17:37:43.534Z,36.37
2019-03-03T17:40:20.401Z,36.00
2019-03-03T17:42:48.824Z,35.71
2019-03-03T17:45:21.853Z,35.68
2019-03-03T17:47:50.811Z,35.66
2019-03-03T17:50:21.739Z,35.64
2019-03-03T17:52:50.281Z,35.55
2019-03-03T17:55:19.149Z,35.58
2019-03-03T17:57:47.635Z,35.52
2019-03-03T18:00:19.427Z,35.50
2019-03-03T18:02:48.075Z,35.49
2019-03-03T18:05:18.453Z,35.51
2019-03-03T18:07:46.998Z,35.72
2019-03-03T18:10:15.915Z,35.55
2019-03-03T18:12:44.393Z,35.51
2019-03-03T18:15:14.581Z,35.50
2019-03-03T18:17:42.997Z,35.48
2019-03-03T18:20:22.055Z,35.44
2019-03-03T18:22:50.703Z,35.41
2019-03-03T18:25:22.504Z,35.38
2019-03-03T18:27:51.112Z,35.35
2019-03-03T18:30:22.226Z,35.36
2019-03-03T18:32:50.815Z,35.31
2019-03-03T18:35:19.359Z,35.31
2019-03-03T18:37:47.867Z,35.30
2019-03-03T18:40:18.338Z,35.26
2019-03-03T18:42:46.990Z,35.26
2019-03-03T18:45:18.097Z,35.25
2019-03-03T18:47:47.145Z,35.26
2019-03-03T18:50:20.099Z,35.28
2019-03-03T18:52:48.523Z,35.26
2019-03-03T18:55:17.195Z,35.23
2019-03-03T18:57:45.769Z,35.19
2019-03-03T19:00:23.037Z,35.14
2019-03-03T19:02:51.889Z,35.12
2019-03-03T19:05:20.553Z,35.10
2019-03-03T19:07:49.307Z,35.06
2019-03-03T19:10:25.845Z,35.08
2019-03-03T19:12:54.245Z,35.04
2019-03-03T19:15:22.864Z,35.02
2019-03-03T19:17:51.348Z,35.05
2019-03-03T19:20:21.019Z,35.04
2019-03-03T19:22:50.088Z,35.04
2019-03-03T19:25:18.957Z,35.02
2019-03-03T19:27:47.366Z,35.03
2019-03-03T19:30:18.491Z,35.03
2019-03-03T19:32:49.369Z,35.02
2019-03-03T19:35:17.940Z,35.01
2019-03-03T19:37:46.343Z,35.02
2019-03-03T19:40:14.951Z,35.03
2019-03-03T19:42:43.361Z,35.04
2019-03-03T19:45:14.845Z,35.06
2019-03-03T19:47:43.387Z,35.07
2019-03-03T19:50:13.536Z,35.07
2019-03-03T19:52:42.106Z,35.07
2019-03-03T19:55:12.975Z,35.09
2019-03-03T19:57:41.448Z,35.07
2019-03-03T20:00:21.651Z,35.08
2019-03-03T20:02:50.150Z,35.04
2019-03-03T20:05:18.649Z,35.03
2019-03-03T20:07:47.079Z,35.03
2019-03-03T20:10:15.820Z,35.04
2019-03-03T20:12:45.267Z,35.03
2019-03-03T20:15:13.668Z,35.03
2019-03-03T20:17:44.367Z,35.02
2019-03-03T20:20:18.517Z,35.07
2019-03-03T20:22:47.006Z,35.04
2019-03-03T20:25:15.613Z,35.07
2019-03-03T20:27:44.976Z,35.03
2019-03-03T20:30:21.478Z,35.03
2019-03-03T20:32:50.068Z,35.01
2019-03-03T20:35:18.638Z,34.98
2019-03-03T20:37:48.117Z,35.00
2019-03-03T20:40:18.254Z,35.00
2019-03-03T20:42:46.864Z,34.99
2019-03-03T20:45:23.562Z,35.00
2019-03-03T20:47:51.994Z,35.00
2019-03-03T20:50:21.479Z,34.98
2019-03-03T20:52:50.846Z,35.00
2019-03-03T20:55:26.828Z,34.98
2019-03-03T20:57:55.324Z,34.92
2019-03-03T21:00:28.084Z,34.91
2019-03-03T21:02:56.953Z,34.92
2019-03-03T21:05:25.687Z,34.92
2019-03-03T21:07:54.568Z,34.91
2019-03-03T21:10:31.628Z,34.91
2019-03-03T21:13:00.054Z,34.95
2019-03-03T21:15:28.660Z,34.90
2019-03-03T21:17:57.087Z,34.90
2019-03-03T21:20:26.024Z,34.92
2019-03-03T21:22:54.434Z,34.91
2019-03-03T21:25:22.867Z,34.90
2019-03-03T21:27:51.283Z,34.92
2019-03-03T21:30:27.509Z,34.93
2019-03-03T21:32:56.062Z,34.93
2019-03-03T21:35:24.831Z,34.95
2019-03-03T21:37:53.412Z,34.95
2019-03-03T21:40:26.969Z,34.94
2019-03-03T21:42:55.444Z,34.94
2019-03-03T21:45:25.324Z,34.94
2019-03-03T21:47:54.449Z,34.96
2019-03-03T21:50:24.618Z,34.94
2019-03-03T21:52:53.026Z,34.97
2019-03-03T21:55:21.428Z,34.93
2019-03-03T21:57:49.935Z,34.96
2019-03-03T22:00:21.150Z,34.97
2019-03-03T22:02:49.572Z,34.97
2019-03-03T22:05:18.016Z,34.97
2019-03-03T22:07:46.428Z,34.96
2019-03-03T22:10:14.828Z,34.97
2019-03-03T22:12:43.252Z,34.98
2019-03-03T22:15:13.520Z,34.99
2019-03-03T22:17:41.922Z,34.99
2019-03-03T22:20:11.210Z,34.98
2019-03-03T22:22:39.694Z,35.00
2019-03-03T22:25:12.411Z,35.01
2019-03-03T22:27:41.412Z,35.00
2019-03-03T22:30:15.112Z,35.02
2019-03-03T22:32:43.528Z,35.02
2019-03-03T22:35:12.202Z,35.03
2019-03-03T22:37:40.614Z,35.03
2019-03-03T22:40:16.693Z,35.01
2019-03-03T22:42:45.098Z,35.00
2019-03-03T22:45:15.052Z,35.01
2019-03-03T22:47:43.486Z,35.00
2019-03-03T22:50:16.172Z,35.01
2019-03-03T22:52:44.738Z,35.00
2019-03-03T22:55:14.698Z,35.01
2019-03-03T22:57:43.121Z,35.02
2019-03-03T23:00:28.092Z,35.03
2019-03-03T23:02:56.508Z,35.02
2019-03-03T23:05:30.583Z,35.04
2019-03-03T23:08:05.154Z,35.03
2019-03-03T23:11:05.482Z,35.05
2019-03-03T23:13:42.488Z,35.07
2019-03-03T23:16:22.730Z,35.06
2019-03-03T23:19:06.375Z,35.06
2019-03-03T23:21:46.534Z,35.03
2019-03-03T23:24:32.721Z,35.08
2019-03-03T23:27:01.120Z,35.03
2019-03-03T23:29:29.702Z,35.05
2019-03-03T23:31:58.116Z,35.03
2019-03-03T23:34:26.526Z,35.03
2019-03-03T23:36:54.958Z,35.03
2019-03-03T23:39:23.390Z,35.02
2019-03-03T23:41:51.835Z,35.04
2019-03-03T23:44:20.232Z,35.04
2019-03-03T23:46:48.670Z,35.04
2019-03-03T23:49:17.097Z,35.02
2019-03-03T23:51:45.539Z,35.02
2019-03-03T23:54:13.941Z,35.00
2019-03-03T23:56:42.378Z,35.01
2019-03-03T23:59:10.785Z,35.01
